Time;durP1;ratioP1;P1;durP2;ratioP2;P2;SDS_P1;SDS_P2;PMS_P1;PMS_P2;Temp;Humidity;BMP_temperature;BMP_pressure;BME280_temperature;BME280_humidity;BME280_pressure;Samples;Min_cycle;Max_cycle;Signal;HPM_P1;HPM_P2
2022/10/07 00:01:39;;;;;;;0.43;0.43;;;7.50;99.90;;;;;;5066049;28;20471;-69
2022/10/07 00:04:27;;;;;;;0.50;0.50;;;7.50;99.90;;;;;;5066159;28;20438;-70
2022/10/07 00:07:15;;;;;;;0.50;0.50;;;7.40;99.90;;;;;;5065019;28;20448;-69
2022/10/07 00:10:06;;;;;;;0.47;0.47;;;7.40;99.90;;;;;;5064883;28;20478;-69
2022/10/07 00:12:54;;;;;;;0.40;0.40;;;7.40;99.90;;;;;;5065651;28;20490;-70
2022/10/07 00:15:42;;;;;;;0.50;0.50;;;7.40;99.90;;;;;;5079490;28;20427;-69
2022/10/07 00:18:30;;;;;;;0.50;0.50;;;7.30;99.90;;;;;;5085477;28;20415;-69
2022/10/07 00:21:19;;;;;;;0.43;0.43;;;7.30;99.90;;;;;;5086009;28;20482;-70
2022/10/07 00:24:09;;;;;;;0.50;0.50;;;7.20;99.90;;;;;;5085926;28;20420;-69
2022/10/07 00:26:58;;;;;;;0.50;0.50;;;7.20;99.90;;;;;;5084066;28;20423;-69
2022/10/07 00:29:46;;;;;;;0.43;0.43;;;7.00;99.90;;;;;;5084721;28;20504;-71
2022/10/07 00:32:34;;;;;;;0.50;0.50;;;7.20;99.90;;;;;;5084700;28;20439;-71
2022/10/07 00:35:22;;;;;;;0.50;0.50;;;7.20;99.90;;;;;;5086274;28;20423;-71
2022/10/07 00:38:10;;;;;;;0.47;0.47;;;7.10;99.90;;;;;;5083126;28;20507;-70
2022/10/07 00:40:58;;;;;;;0.50;0.50;;;7.10;99.90;;;;;;5077426;28;20986;-71
2022/10/07 00:43:48;;;;;;;0.50;0.50;;;7.10;99.90;;;;;;5074396;28;20467;-70
2022/10/07 00:46:39;;;;;;;0.50;0.50;;;7.10;99.90;;;;;;5075029;28;20425;-70
2022/10/07 00:49:29;;;;;;;0.50;0.50;;;7.10;99.90;;;;;;5072671;28;20829;-70
2022/10/07 00:52:19;;;;;;;0.40;0.40;;;7.10;99.90;;;;;;5072563;28;20446;-70
2022/10/07 00:55:14;;;;;;;0.50;0.50;;;7.00;99.90;;;;;;5073302;28;20445;-71
2022/10/07 00:58:07;;;;;;;0.50;0.50;;;7.00;99.90;;;;;;5071908;28;20426;-70
2022/10/07 01:00:57;;;;;;;0.40;0.40;;;7.00;99.90;;;;;;5072571;28;20819;-76
2022/10/07 01:03:47;;;;;;;0.50;0.50;;;7.00;99.90;;;;;;5073630;28;20466;-69
2022/10/07 01:06:38;;;;;;;0.50;0.50;;;7.00;99.90;;;;;;5073003;28;20510;-70
2022/10/07 01:09:26;;;;;;;0.50;0.50;;;7.00;99.90;;;;;;5073332;28;20419;-71
2022/10/07 01:12:21;;;;;;;0.50;0.50;;;7.00;99.90;;;;;;5070369;28;20523;-71
2022/10/07 01:15:18;;;;;;;0.40;0.40;;;7.00;99.90;;;;;;5062028;28;20438;-70
2022/10/07 01:18:13;;;;;;;0.43;0.43;;;6.90;99.90;;;;;;5051248;28;20562;-71
2022/10/07 01:21:08;;;;;;;0.50;0.50;;;6.90;99.90;;;;;;5050848;28;20440;-69
2022/10/07 01:24:09;;;;;;;0.40;0.40;;;6.80;99.90;;;;;;5051723;28;20464;-71
2022/10/07 01:27:01;;;;;;;0.40;0.40;;;6.80;99.90;;;;;;5051916;28;21137;-70
2022/10/07 01:29:55;;;;;;;0.40;0.40;;;6.80;99.90;;;;;;5050746;28;20460;-71
2022/10/07 01:36:55;;;;;;;0.40;0.40;;;6.70;99.90;;;;;;5068362;28;20391;-70
2022/10/07 01:39:49;;;;;;;0.50;0.50;;;6.70;99.90;;;;;;5062295;28;21057;-71
2022/10/07 01:42:39;;;;;;;0.50;0.50;;;6.70;99.90;;;;;;5056748;28;20994;-70
2022/10/07 01:45:31;;;;;;;0.50;0.50;;;6.60;99.90;;;;;;5056682;28;20420;-71
2022/10/07 01:48:19;;;;;;;0.40;0.40;;;6.60;99.90;;;;;;5057485;28;20424;-69
2022/10/07 01:51:08;;;;;;;0.50;0.50;;;6.80;99.90;;;;;;5056909;28;20446;-70
2022/10/07 01:54:01;;;;;;;0.50;0.50;;;6.60;99.90;;;;;;5056829;28;20770;-70
2022/10/07 01:57:00;;;;;;;0.40;0.40;;;6.60;99.90;;;;;;5057053;28;20426;-70
2022/10/07 02:00:05;;;;;;;0.50;0.50;;;6.60;99.90;;;;;;5056260;28;20510;-70
2022/10/07 02:03:25;;;;;;;0.50;0.50;;;6.50;99.90;;;;;;5055162;28;20840;-71
2022/10/07 02:06:24;;;;;;;0.50;0.50;;;6.50;99.90;;;;;;5055245;28;20465;-71
2022/10/07 02:09:23;;;;;;;0.50;0.50;;;6.40;99.90;;;;;;5057015;28;20799;-70
2022/10/07 02:12:18;;;;;;;0.50;0.50;;;6.50;99.90;;;;;;5056724;28;20446;-69
2022/10/07 02:15:13;;;;;;;0.50;0.50;;;6.40;99.90;;;;;;5056203;28;20428;-69
2022/10/07 02:18:06;;;;;;;0.50;0.50;;;6.40;99.90;;;;;;5054741;28;20428;-69
2022/10/07 02:20:55;;;;;;;0.40;0.40;;;6.50;99.90;;;;;;5055286;28;20424;-69
2022/10/07 02:23:45;;;;;;;0.50;0.50;;;6.30;99.90;;;;;;5054108;28;20975;-70
2022/10/07 02:26:35;;;;;;;0.50;0.50;;;6.30;99.90;;;;;;5054573;28;20424;-70
2022/10/07 02:29:26;;;;;;;0.50;0.50;;;6.30;99.90;;;;;;5054330;28;20424;-70
2022/10/07 02:32:19;;;;;;;0.50;0.50;;;6.30;99.90;;;;;;5055083;28;20448;-69
2022/10/07 02:35:16;;;;;;;0.50;0.50;;;6.30;99.90;;;;;;5056014;28;20425;-70
2022/10/07 02:38:09;;;;;;;0.50;0.50;;;6.30;99.90;;;;;;5054298;28;20431;-70
2022/10/07 02:41:04;;;;;;;0.90;0.90;;;6.20;99.90;;;;;;5053866;28;20979;-69
2022/10/07 02:43:57;;;;;;;0.50;0.50;;;6.20;99.90;;;;;;5053548;28;20460;-70
2022/10/07 02:46:49;;;;;;;0.80;0.80;;;6.20;99.90;;;;;;5053935;28;20428;-69
2022/10/07 02:49:41;;;;;;;4.93;3.83;;;6.20;99.90;;;;;;5054196;28;20431;-70
2022/10/07 02:52:31;;;;;;;0.50;0.50;;;6.10;99.90;;;;;;5053967;28;20448;-70
2022/10/07 02:55:23;;;;;;;0.50;0.50;;;6.20;99.90;;;;;;5053579;28;20448;-69
2022/10/07 02:58:12;;;;;;;0.47;0.47;;;6.00;99.90;;;;;;5054512;28;20428;-70
2022/10/07 03:01:02;;;;;;;0.50;0.50;;;6.10;99.90;;;;;;5053634;28;20448;-70
2022/10/07 03:03:50;;;;;;;0.50;0.50;;;6.10;99.90;;;;;;5054218;28;20471;-70
2022/10/07 03:06:40;;;;;;;0.40;0.40;;;6.10;99.90;;;;;;5054642;28;20929;-70
2022/10/07 03:09:30;;;;;;;0.50;0.50;;;6.00;99.90;;;;;;5053620;28;20510;-70
2022/10/07 03:12:18;;;;;;;0.40;0.40;;;6.00;99.90;;;;;;5054127;28;20444;-70
2022/10/07 03:15:09;;;;;;;0.50;0.50;;;6.00;99.90;;;;;;5064697;28;20427;-70
2022/10/07 03:17:57;;;;;;;0.50;0.50;;;6.00;99.90;;;;;;5074539;28;20428;-70
2022/10/07 03:20:45;;;;;;;0.50;0.50;;;5.90;99.90;;;;;;5073795;28;20430;-70
2022/10/07 03:23:35;;;;;;;0.50;0.50;;;5.90;99.90;;;;;;5074706;28;20463;-70
2022/10/07 03:26:23;;;;;;;0.50;0.50;;;5.80;99.90;;;;;;5074405;28;20419;-70
2022/10/07 03:29:12;;;;;;;0.50;0.50;;;5.90;99.90;;;;;;5074706;28;20434;-69
2022/10/07 03:32:00;;;;;;;1.27;1.27;;;5.90;99.90;;;;;;5075866;28;20445;-70
2022/10/07 03:34:48;;;;;;;0.50;0.50;;;5.90;99.90;;;;;;5073168;28;20442;-70
2022/10/07 03:37:36;;;;;;;0.50;0.50;;;5.90;99.90;;;;;;5074916;28;21069;-70
2022/10/07 03:40:25;;;;;;;0.50;0.50;;;6.00;99.90;;;;;;5073368;28;20419;-70
2022/10/07 03:43:13;;;;;;;0.50;0.50;;;5.80;99.90;;;;;;5074332;28;20438;-70
2022/10/07 03:46:01;;;;;;;0.50;0.50;;;5.60;99.90;;;;;;5074054;28;20481;-70
2022/10/07 03:48:50;;;;;;;0.40;0.40;;;5.80;99.90;;;;;;5075287;28;20431;-70
2022/10/07 03:51:38;;;;;;;0.50;0.50;;;5.80;99.90;;;;;;5055940;28;20427;-70
2022/10/07 03:54:27;;;;;;;0.50;0.50;;;5.70;99.90;;;;;;5053970;28;20792;-69
2022/10/07 04:00:24;;;;;;;0.47;0.47;;;5.70;99.90;;;;;;5053513;28;20432;-70
2022/10/07 04:03:13;;;;;;;0.50;0.50;;;5.70;99.90;;;;;;5053023;28;20429;-70
2022/10/07 04:06:02;;;;;;;0.50;0.50;;;5.70;99.90;;;;;;5054247;28;20474;-69
2022/10/07 04:08:52;;;;;;;0.50;0.50;;;5.70;99.90;;;;;;5055346;28;20522;-70
2022/10/07 04:11:40;;;;;;;0.40;0.40;;;5.70;99.90;;;;;;5054727;28;20447;-70
2022/10/07 04:14:30;;;;;;;0.50;0.50;;;5.70;99.90;;;;;;5069864;28;20427;-70
2022/10/07 04:17:18;;;;;;;0.50;0.50;;;5.60;99.90;;;;;;5086105;28;20424;-69
2022/10/07 04:20:08;;;;;;;0.40;0.40;;;5.60;99.90;;;;;;5085327;28;20427;-69
2022/10/07 04:22:56;;;;;;;0.50;0.50;;;5.60;99.90;;;;;;5081809;28;20461;-69
2022/10/07 04:25:45;;;;;;;0.40;0.40;;;5.60;99.90;;;;;;5081221;28;20460;-69
2022/10/07 04:28:33;;;;;;;0.50;0.50;;;5.60;99.90;;;;;;5080185;28;20419;-70
2022/10/07 04:31:22;;;;;;;0.50;0.50;;;5.60;99.90;;;;;;5082076;28;20459;-70
2022/10/07 04:34:10;;;;;;;0.50;0.50;;;5.50;99.90;;;;;;5079608;28;20499;-70
2022/10/07 04:36:59;;;;;;;0.50;0.50;;;5.60;99.90;;;;;;5079357;28;20438;-70
2022/10/07 04:39:48;;;;;;;0.40;0.40;;;5.60;99.90;;;;;;5079459;28;20445;-70
2022/10/07 04:45:59;;;;;;;0.50;0.50;;;5.40;99.90;;;;;;5074018;28;20447;-70
2022/10/07 04:48:49;;;;;;;0.50;0.50;;;5.50;99.90;;;;;;5073492;28;20430;-69
2022/10/07 04:51:37;;;;;;;0.43;0.43;;;5.50;99.90;;;;;;5081048;28;20466;-69
2022/10/07 04:54:25;;;;;;;0.50;0.50;;;5.40;99.90;;;;;;5087027;28;20411;-70
2022/10/07 04:57:13;;;;;;;0.47;0.47;;;5.40;99.90;;;;;;5088262;28;20486;-68
2022/10/07 05:00:01;;;;;;;0.40;0.40;;;5.40;99.90;;;;;;5088066;28;20435;-69
2022/10/07 05:02:50;;;;;;;0.50;0.50;;;5.40;99.90;;;;;;5084180;28;20440;-69
2022/10/07 05:05:42;;;;;;;0.40;0.40;;;5.40;99.90;;;;;;5088241;28;20485;-69
2022/10/07 05:08:31;;;;;;;0.50;0.50;;;5.40;99.90;;;;;;5088311;28;20432;-69
2022/10/07 05:11:19;;;;;;;0.50;0.50;;;5.40;99.90;;;;;;5085033;28;20449;-69
2022/10/07 05:14:07;;;;;;;0.50;0.50;;;5.40;99.90;;;;;;5084038;28;20420;-68
2022/10/07 05:16:55;;;;;;;0.50;0.50;;;5.40;99.90;;;;;;5067929;28;20420;-69
2022/10/07 05:19:43;;;;;;;0.50;0.50;;;5.30;99.90;;;;;;5061263;28;20424;-69
2022/10/07 05:22:33;;;;;;;0.50;0.50;;;5.30;99.90;;;;;;5063071;28;20464;-70
2022/10/07 05:25:21;;;;;;;0.50;0.50;;;5.40;99.90;;;;;;5059373;28;21092;-68
2022/10/07 05:28:10;;;;;;;0.50;0.50;;;5.40;99.90;;;;;;5059319;28;20428;-69
2022/10/07 05:31:04;;;;;;;0.40;0.40;;;5.40;99.90;;;;;;5056140;28;20474;-70
2022/10/07 05:33:52;;;;;;;0.50;0.50;;;5.40;99.90;;;;;;5058167;28;20424;-69
2022/10/07 05:36:41;;;;;;;0.50;0.50;;;5.50;99.90;;;;;;5056684;28;20420;-69
2022/10/07 05:39:30;;;;;;;1.17;1.17;;;5.50;99.90;;;;;;5058790;28;20428;-70
2022/10/07 05:42:18;;;;;;;0.50;0.50;;;5.50;99.90;;;;;;5063920;28;20462;-69
2022/10/07 05:45:07;;;;;;;0.50;0.50;;;5.60;99.90;;;;;;5081707;28;20483;-69
2022/10/07 05:47:57;;;;;;;0.50;0.50;;;5.60;99.90;;;;;;5088108;28;20936;-70
2022/10/07 05:50:47;;;;;;;0.40;0.40;;;5.60;99.90;;;;;;5088349;28;20522;-70
2022/10/07 05:53:35;;;;;;;0.50;0.50;;;5.50;99.90;;;;;;5082458;28;20430;-70
2022/10/07 05:56:24;;;;;;;0.50;0.50;;;5.60;99.90;;;;;;5055563;28;20501;-70
2022/10/07 05:59:12;;;;;;;0.50;0.50;;;5.70;99.90;;;;;;5071045;28;20427;-69
2022/10/07 06:02:00;;;;;;;0.50;0.50;;;5.70;99.90;;;;;;5077424;28;20439;-69
2022/10/07 06:04:49;;;;;;;0.50;0.50;;;5.70;99.90;;;;;;5076252;28;20430;-69
2022/10/07 06:07:37;;;;;;;0.50;0.50;;;5.60;99.90;;;;;;5076476;28;20434;-68
2022/10/07 06:13:33;;;;;;;0.50;0.50;;;5.90;99.90;;;;;;5057851;28;20432;-70
2022/10/07 06:16:21;;;;;;;0.50;0.50;;;5.90;99.90;;;;;;5055777;28;21111;-70
2022/10/07 06:19:21;;;;;;;0.50;0.50;;;5.90;99.90;;;;;;5056298;28;20865;-71
2022/10/07 06:22:10;;;;;;;0.50;0.50;;;6.00;99.90;;;;;;5056776;28;20452;-70
2022/10/07 06:25:00;;;;;;;0.50;0.50;;;6.00;99.90;;;;;;5056196;28;20948;-68
2022/10/07 06:27:49;;;;;;;0.47;0.47;;;6.10;99.90;;;;;;5056545;28;20432;-68
2022/10/07 06:30:42;;;;;;;0.50;0.50;;;6.20;99.90;;;;;;5056694;28;20584;-68
2022/10/07 06:33:30;;;;;;;0.50;0.50;;;6.20;99.90;;;;;;5056481;28;20428;-69
2022/10/07 06:36:19;;;;;;;0.50;0.50;;;6.30;99.90;;;;;;5056985;28;20468;-69
2022/10/07 06:39:07;;;;;;;0.50;0.50;;;6.30;99.90;;;;;;5055725;28;20436;-69
2022/10/07 06:41:56;;;;;;;0.50;0.50;;;6.40;99.90;;;;;;5054867;28;20440;-69
2022/10/07 06:44:44;;;;;;;0.50;0.50;;;6.50;99.90;;;;;;5054304;28;20444;-69
2022/10/07 06:47:34;;;;;;;0.40;0.40;;;6.60;99.90;;;;;;5055200;28;20462;-70
2022/10/07 06:50:22;;;;;;;0.50;0.50;;;6.60;99.90;;;;;;5055639;28;20429;-69
2022/10/07 06:53:10;;;;;;;0.43;0.43;;;6.70;99.90;;;;;;5055497;28;20424;-69
2022/10/07 06:56:02;;;;;;;0.40;0.40;;;6.80;99.90;;;;;;5055549;28;20464;-70
2022/10/07 06:58:50;;;;;;;0.40;0.40;;;6.90;99.90;;;;;;5055711;28;20429;-69
2022/10/07 07:01:38;;;;;;;0.50;0.50;;;7.00;99.90;;;;;;5055196;28;20440;-68
2022/10/07 07:04:27;;;;;;;0.40;0.40;;;7.10;99.90;;;;;;5067024;28;20447;-69
2022/10/07 07:07:15;;;;;;;0.43;0.43;;;7.20;99.90;;;;;;5073430;28;20416;-69
2022/10/07 07:10:04;;;;;;;0.40;0.40;;;7.30;99.90;;;;;;5057247;28;20491;-69
2022/10/07 07:12:53;;;;;;;0.50;0.50;;;7.40;99.90;;;;;;5059194;28;20959;-69
2022/10/07 07:15:42;;;;;;;0.50;0.50;;;7.50;99.90;;;;;;5055550;28;20468;-70
2022/10/07 07:18:30;;;;;;;0.40;0.40;;;7.60;99.90;;;;;;5053734;28;20481;-69
2022/10/07 07:21:19;;;;;;;0.40;0.40;;;7.70;99.90;;;;;;5052669;28;21073;-69
2022/10/07 07:24:07;;;;;;;0.50;0.50;;;7.80;99.90;;;;;;5053202;28;20507;-69
2022/10/07 07:26:56;;;;;;;0.40;0.40;;;7.90;99.90;;;;;;5053501;28;20993;-70
2022/10/07 07:29:44;;;;;;;0.40;0.40;;;8.00;99.90;;;;;;5054807;28;20423;-70
2022/10/07 07:32:32;;;;;;;0.50;0.50;;;8.10;99.90;;;;;;5053687;28;20854;-69
2022/10/07 07:35:20;;;;;;;0.40;0.40;;;8.20;99.90;;;;;;5054596;28;20470;-69
2022/10/07 07:38:10;;;;;;;0.40;0.40;;;8.40;99.90;;;;;;5060560;28;20427;-70
2022/10/07 07:41:04;;;;;;;0.40;0.40;;;8.50;99.90;;;;;;5071760;28;20537;-69
2022/10/07 07:43:54;;;;;;;0.40;0.40;;;8.60;99.90;;;;;;5073652;28;20423;-69
2022/10/07 07:46:46;;;;;;;0.50;0.50;;;8.70;99.90;;;;;;5053616;28;20524;-71
2022/10/07 07:49:34;;;;;;;0.50;0.50;;;8.80;99.90;;;;;;5052907;28;20412;-69
2022/10/07 07:52:24;;;;;;;0.40;0.40;;;9.00;99.90;;;;;;5052934;28;20518;-70
2022/10/07 07:55:13;;;;;;;0.40;0.40;;;9.00;99.90;;;;;;5052979;28;21128;-70
2022/10/07 07:58:02;;;;;;;0.40;0.40;;;9.20;99.90;;;;;;5053740;28;20420;-69
2022/10/07 08:01:00;;;;;;;0.43;0.43;;;9.40;99.90;;;;;;5051086;28;20428;-69
2022/10/07 08:03:49;;;;;;;0.40;0.40;;;9.50;99.90;;;;;;5056652;28;20450;-71
2022/10/07 08:06:37;;;;;;;0.40;0.40;;;9.60;99.90;;;;;;5066841;28;20498;-70
2022/10/07 08:09:25;;;;;;;0.50;0.50;;;9.80;99.90;;;;;;5071798;28;20954;-71
2022/10/07 08:12:15;;;;;;;0.40;0.40;;;9.90;99.90;;;;;;5073358;28;20482;-70
2022/10/07 08:15:03;;;;;;;0.40;0.40;;;10.00;99.90;;;;;;5072139;28;20518;-70
2022/10/07 08:17:52;;;;;;;0.50;0.50;;;10.20;99.90;;;;;;5072807;28;20435;-70
2022/10/07 08:20:40;;;;;;;0.50;0.50;;;10.20;99.90;;;;;;5072285;28;20447;-70
2022/10/07 08:23:30;;;;;;;0.40;0.40;;;10.40;99.90;;;;;;5072502;28;20423;-70
2022/10/07 08:26:18;;;;;;;0.40;0.40;;;10.40;99.90;;;;;;5071035;28;20420;-71
2022/10/07 08:29:07;;;;;;;0.50;0.50;;;10.60;99.90;;;;;;5072206;28;20930;-70
2022/10/07 08:31:55;;;;;;;0.50;0.50;;;10.70;99.90;;;;;;5068207;28;20467;-70
2022/10/07 08:34:43;;;;;;;0.40;0.40;;;10.80;99.90;;;;;;5052054;28;20435;-70
2022/10/07 08:37:31;;;;;;;0.40;0.40;;;10.90;99.90;;;;;;5052505;28;20462;-69
2022/10/07 08:40:20;;;;;;;0.50;0.50;;;11.10;99.90;;;;;;5050518;28;20442;-70
2022/10/07 08:43:09;;;;;;;0.40;0.40;;;11.20;99.90;;;;;;5053033;28;20577;-71
2022/10/07 08:45:59;;;;;;;0.40;0.40;;;11.20;99.90;;;;;;5053201;28;20455;-70
2022/10/07 08:48:52;;;;;;;0.40;0.40;;;11.40;99.90;;;;;;5052610;28;20446;-70
2022/10/07 08:51:44;;;;;;;0.60;0.60;;;11.50;99.90;;;;;;5053701;28;20830;-70
2022/10/07 08:54:33;;;;;;;0.50;0.50;;;11.70;99.90;;;;;;5073385;28;20426;-70
2022/10/07 08:57:40;;;;;;;0.40;0.40;;;11.60;99.90;;;;;;5071441;28;20478;-70
2022/10/07 09:00:28;;;;;;;0.40;0.40;;;11.90;99.90;;;;;;5071857;28;20454;-70
2022/10/07 09:03:27;;;;;;;0.50;0.50;;;12.00;99.90;;;;;;5071650;28;20438;-70
2022/10/07 09:06:26;;;;;;;0.40;0.40;;;12.10;99.90;;;;;;5069221;28;20427;-71
2022/10/07 09:09:19;;;;;;;0.50;0.50;;;12.30;99.90;;;;;;5071701;28;20467;-69
2022/10/07 09:12:12;;;;;;;0.40;0.40;;;12.30;99.90;;;;;;5070751;28;20443;-70
2022/10/07 09:15:03;;;;;;;0.40;0.40;;;12.50;99.90;;;;;;5072342;28;20419;-70
2022/10/07 09:17:55;;;;;;;0.40;0.40;;;12.50;99.90;;;;;;5054090;28;20471;-70
2022/10/07 09:20:50;;;;;;;0.40;0.40;;;12.70;99.90;;;;;;5051505;28;20424;-70
2022/10/07 09:23:39;;;;;;;0.40;0.40;;;12.70;99.90;;;;;;5051274;28;20420;-70
2022/10/07 09:26:28;;;;;;;0.40;0.40;;;12.80;99.90;;;;;;5049738;28;20420;-70
2022/10/07 09:29:20;;;;;;;0.70;0.70;;;12.90;99.90;;;;;;5050883;28;20780;-73
2022/10/07 09:32:12;;;;;;;0.40;0.40;;;13.00;99.90;;;;;;5052119;28;20444;-69
2022/10/07 09:35:02;;;;;;;0.40;0.40;;;13.00;99.90;;;;;;5051896;28;20420;-70
2022/10/07 09:38:00;;;;;;;0.50;0.50;;;13.20;99.90;;;;;;5052115;28;20468;-71
2022/10/07 09:44:01;;;;;;;0.40;0.40;;;13.30;99.90;;;;;;5070615;28;20451;-70
2022/10/07 09:46:52;;;;;;;0.40;0.40;;;13.40;99.90;;;;;;5073120;28;20908;-70
2022/10/07 09:49:42;;;;;;;0.50;0.50;;;13.50;99.90;;;;;;5070984;28;20799;-69
2022/10/07 09:52:31;;;;;;;0.40;0.40;;;13.60;99.90;;;;;;5071239;28;20446;-69
2022/10/07 09:55:41;;;;;;;0.40;0.40;;;13.60;99.90;;;;;;5071068;28;20426;-71
2022/10/07 09:58:31;;;;;;;0.40;0.40;;;13.70;99.90;;;;;;5058879;28;20432;-71
2022/10/07 10:01:20;;;;;;;0.40;0.40;;;13.70;99.90;;;;;;5055768;28;20826;-69
2022/10/07 10:04:15;;;;;;;0.40;0.40;;;13.80;99.90;;;;;;5061845;28;20427;-70
2022/10/07 10:07:06;;;;;;;0.40;0.40;;;13.90;99.90;;;;;;5074182;28;20427;-71
2022/10/07 10:09:56;;;;;;;0.40;0.40;;;14.00;99.90;;;;;;5075030;28;20935;-71
2022/10/07 10:12:48;;;;;;;0.50;0.50;;;14.00;99.90;;;;;;5058479;28;20455;-70
2022/10/07 10:15:39;;;;;;;0.40;0.40;;;14.10;99.90;;;;;;5053963;28;20424;-70
2022/10/07 10:18:37;;;;;;;0.50;0.50;;;14.20;99.90;;;;;;5060568;28;20979;-69
2022/10/07 10:21:28;;;;;;;0.40;0.40;;;14.20;99.90;;;;;;5069652;28;20577;-71
2022/10/07 10:26:24;;;;;;;0.40;0.40;;;14.30;99.90;;;;;;5071967;28;20454;-70
2022/10/07 10:27:29;;;;;;;0.50;0.50;;;14.40;99.90;;;;;;5074720;28;20900;-69
2022/10/07 10:30:22;;;;;;;0.40;0.40;;;14.50;99.90;;;;;;5073793;28;20920;-72
2022/10/07 10:33:20;;;;;;;0.40;0.40;;;14.60;99.90;;;;;;5073690;28;20899;-70
2022/10/07 10:36:16;;;;;;;0.50;0.50;;;14.70;99.90;;;;;;5073900;28;20427;-69
2022/10/07 10:39:12;;;;;;;0.40;0.40;;;14.80;99.90;;;;;;5073670;28;20415;-69
2022/10/07 10:42:05;;;;;;;0.40;0.40;;;14.80;99.90;;;;;;5074591;28;20977;-73
2022/10/07 10:45:11;;;;;;;0.40;0.40;;;14.90;99.90;;;;;;5073522;28;20457;-71
2022/10/07 10:48:17;;;;;;;0.50;0.50;;;14.90;99.90;;;;;;5073324;28;20419;-72
2022/10/07 10:51:14;;;;;;;0.47;0.47;;;15.00;99.90;;;;;;5066636;28;20454;-72
2022/10/07 10:54:20;;;;;;;0.40;0.40;;;15.10;99.90;;;;;;5066304;28;20952;-71
2022/10/07 10:57:15;;;;;;;0.40;0.40;;;15.10;99.90;;;;;;5061797;28;20470;-71
2022/10/07 11:00:10;;;;;;;0.40;0.40;;;15.20;99.90;;;;;;5057139;28;20444;-71
2022/10/07 11:03:16;;;;;;;0.40;0.40;;;15.30;99.90;;;;;;5064007;28;20505;-71
2022/10/07 11:06:09;;;;;;;0.50;0.50;;;15.40;99.90;;;;;;5053798;28;20423;-71
2022/10/07 11:08:59;;;;;;;0.50;0.50;;;15.40;99.90;;;;;;5038955;28;20423;-68
2022/10/07 11:11:48;;;;;;;0.40;0.40;;;15.50;99.90;;;;;;5052668;28;20480;-71
2022/10/07 11:14:48;;;;;;;0.40;0.40;;;15.60;99.90;;;;;;5054716;28;20438;-70
2022/10/07 11:17:38;;;;;;;0.63;0.63;;;15.70;99.90;;;;;;5052134;28;20468;-70
2022/10/07 11:20:32;;;;;;;0.40;0.40;;;15.70;99.90;;;;;;5052914;28;20514;-71
2022/10/07 11:23:23;;;;;;;0.40;0.40;;;15.70;99.90;;;;;;5053663;28;20439;-71
2022/10/07 11:26:18;;;;;;;0.40;0.40;;;15.80;99.90;;;;;;5054720;28;20424;-71
2022/10/07 11:29:17;;;;;;;0.40;0.40;;;15.80;99.90;;;;;;5056299;28;20447;-69
2022/10/07 11:32:11;;;;;;;0.40;0.40;;;15.90;99.90;;;;;;5065085;28;20451;-72
2022/10/07 11:35:15;;;;;;;0.40;0.40;;;15.90;99.90;;;;;;5071875;28;20437;-70
2022/10/07 11:38:16;;;;;;;0.50;0.50;;;15.80;99.90;;;;;;5071599;28;21049;-73
2022/10/07 11:41:10;;;;;;;0.40;0.40;;;15.80;99.90;;;;;;5072216;28;20235;-74
2022/10/07 11:44:03;;;;;;;0.40;0.40;;;15.80;99.90;;;;;;5061368;28;20428;-72
2022/10/07 11:46:53;;;;;;;0.40;0.40;;;15.80;99.90;;;;;;5053837;28;20440;-71
2022/10/07 11:49:47;;;;;;;0.40;0.40;;;15.80;99.90;;;;;;5054860;28;20197;-70
2022/10/07 11:52:40;;;;;;;0.40;0.40;;;15.90;99.90;;;;;;5071020;28;20580;-70
2022/10/07 11:55:34;;;;;;;0.40;0.40;;;15.90;99.90;;;;;;5071881;28;20428;-70
2022/10/07 11:58:26;;;;;;;0.40;0.40;;;15.90;99.90;;;;;;5071339;28;20542;-73
2022/10/07 12:01:50;;;;;;;0.40;0.40;;;15.90;99.90;;;;;;5071091;28;20443;-73
2022/10/07 12:04:38;;;;;;;0.40;0.40;;;16.00;99.90;;;;;;5062093;28;20435;-73
2022/10/07 12:07:38;;;;;;;0.40;0.40;;;16.00;99.90;;;;;;5052471;28;20204;-72
2022/10/07 12:10:30;;;;;;;0.80;0.80;;;16.00;99.90;;;;;;5053753;28;20455;-71
2022/10/07 12:13:39;;;;;;;0.40;0.40;;;16.20;99.90;;;;;;5070816;28;20577;-74
2022/10/07 12:16:51;;;;;;;0.40;0.40;;;16.20;99.90;;;;;;5073134;28;20207;-73
2022/10/07 12:19:40;;;;;;;0.40;0.40;;;16.20;99.90;;;;;;5067817;28;20207;-71
2022/10/07 12:22:28;;;;;;;0.40;0.40;;;16.20;99.90;;;;;;5092042;22;20620;-70
2022/10/07 12:25:32;;;;;;;0.40;0.40;;;16.20;99.90;;;;;;5073083;28;20212;-67
2022/10/07 12:28:26;;;;;;;0.40;0.40;;;16.20;99.90;;;;;;5071412;28;20200;-70
2022/10/07 12:31:45;;;;;;;0.50;0.50;;;16.20;99.90;;;;;;5070448;28;20201;-68
2022/10/07 12:34:40;;;;;;;0.40;0.40;;;16.30;99.90;;;;;;5052743;28;20427;-68
2022/10/07 12:37:49;;;;;;;0.40;0.40;;;16.30;99.90;;;;;;5051953;28;20197;-68
2022/10/07 12:40:40;;;;;;;0.40;0.40;;;16.30;99.90;;;;;;5052228;28;20280;-68
2022/10/07 12:43:44;;;;;;;0.40;0.40;;;16.30;99.90;;;;;;5051766;28;20255;-68
2022/10/07 12:46:38;;;;;;;0.40;0.40;;;16.30;99.90;;;;;;5051664;28;20562;-68
2022/10/07 12:49:31;;;;;;;0.40;0.40;;;16.40;99.90;;;;;;5052163;28;20530;-68
2022/10/07 12:52:23;;;;;;;0.40;0.40;;;16.40;99.90;;;;;;5057062;28;20453;-69
2022/10/07 12:55:16;;;;;;;0.40;0.40;;;16.40;99.90;;;;;;5072178;28;20431;-68
2022/10/07 13:01:39;;;;;;;0.40;0.40;;;16.40;99.90;;;;;;5076024;28;20275;-68
2022/10/07 13:04:49;;;;;;;0.40;0.40;;;16.50;99.90;;;;;;5066586;28;20430;-69
2022/10/07 13:08:16;;;;;;;0.40;0.40;;;16.60;99.90;;;;;;5070343;28;20208;-69
2022/10/07 13:11:30;;;;;;;0.40;0.40;;;16.80;99.90;;;;;;5036251;28;20927;-69
2022/10/07 13:14:25;;;;;;;0.40;0.40;;;17.40;99.90;;;;;;5072526;28;20443;-69
2022/10/07 13:17:30;;;;;;;0.40;0.40;;;17.40;99.90;;;;;;5072428;28;20250;-68
2022/10/07 13:20:32;;;;;;;0.40;0.40;;;17.60;99.90;;;;;;5071858;28;20207;-69
2022/10/07 13:23:21;;;;;;;0.40;0.40;;;17.90;99.90;;;;;;5071325;28;20224;-68
2022/10/07 13:26:15;;;;;;;0.40;0.40;;;17.90;99.90;;;;;;5065935;28;20224;-68
2022/10/07 13:29:04;;;;;;;0.40;0.40;;;18.00;99.90;;;;;;5048731;28;20197;-69
2022/10/07 13:32:05;;;;;;;0.40;0.40;;;18.60;99.90;;;;;;5059378;28;20742;-69
2022/10/07 13:34:53;;;;;;;0.40;0.40;;;20.20;99.90;;;;;;5061680;28;20748;-69
2022/10/07 13:37:45;;;;;;;0.82;0.65;;;21.10;99.90;;;;;;5076959;28;20572;-69
2022/10/07 13:40:34;;;;;;;0.40;0.40;;;21.30;99.90;;;;;;5076148;28;20192;-69
2022/10/07 13:43:25;;;;;;;0.40;0.40;;;21.30;99.90;;;;;;5076951;28;20230;-69
2022/10/07 13:46:15;;;;;;;0.40;0.40;;;20.80;98.40;;;;;;5076308;28;20201;-69
2022/10/07 13:49:07;;;;;;;0.40;0.40;;;20.30;99.40;;;;;;5076131;28;20193;-68
2022/10/07 13:51:58;;;;;;;0.40;0.40;;;20.00;99.90;;;;;;5075867;28;20227;-69
2022/10/07 13:54:50;;;;;;;0.40;0.40;;;20.10;99.40;;;;;;5076264;28;20223;-69
2022/10/07 13:57:42;;;;;;;0.52;0.52;;;20.00;98.70;;;;;;5076514;28;20193;-69
2022/10/07 14:00:32;;;;;;;0.40;0.40;;;19.40;98.60;;;;;;5075639;28;20193;-69
2022/10/07 14:03:20;;;;;;;3.42;2.75;;;19.20;98.50;;;;;;5076010;28;20227;-69
2022/10/07 14:06:39;;;;;;;0.40;0.40;;;19.20;98.20;;;;;;5053375;28;20205;-68
2022/10/07 14:09:46;;;;;;;0.40;0.40;;;19.90;97.80;;;;;;5055811;28;20700;-69
2022/10/07 14:12:38;;;;;;;0.40;0.40;;;23.20;93.70;;;;;;5062016;28;20221;-69
2022/10/07 14:15:28;;;;;;;0.40;0.40;;;24.20;91.90;;;;;;5053770;28;20203;-68
2022/10/07 14:18:17;;;;;;;0.40;0.40;;;25.60;88.10;;;;;;5053400;28;20299;-69
2022/10/07 14:21:09;;;;;;;0.88;0.88;;;26.60;82.40;;;;;;5071463;28;20315;-69
2022/10/07 14:24:08;;;;;;;0.40;0.40;;;27.50;76.10;;;;;;5074066;28;20201;-70
2022/10/07 14:26:56;;;;;;;0.40;0.40;;;27.10;72.00;;;;;;5075020;28;20197;-69
2022/10/07 14:29:45;;;;;;;0.40;0.40;;;26.10;72.40;;;;;;5074829;28;20189;-69
2022/10/07 14:35:39;;;;;;;0.40;0.40;;;24.30;73.20;;;;;;5075024;28;20577;-69
2022/10/07 14:38:28;;;;;;;0.30;0.30;;;23.90;73.80;;;;;;5076163;28;20211;-70
2022/10/07 14:41:20;;;;;;;0.40;0.40;;;23.80;77.90;;;;;;5077053;28;20201;-70
2022/10/07 14:44:08;;;;;;;0.40;0.40;;;23.80;74.30;;;;;;5075478;28;20211;-70
2022/10/07 14:47:04;;;;;;;0.40;0.40;;;23.50;75.40;;;;;;5077231;28;20208;-70
2022/10/07 14:49:54;;;;;;;1.30;1.30;;;22.80;76.00;;;;;;5077448;28;20220;-70
2022/10/07 14:52:45;;;;;;;0.40;0.40;;;22.30;77.60;;;;;;5084398;28;20221;-70
2022/10/07 14:55:34;;;;;;;0.40;0.40;;;21.70;79.70;;;;;;5091399;28;20211;-69
2022/10/07 14:58:24;;;;;;;0.40;0.40;;;21.40;81.10;;;;;;5090073;28;20256;-69
2022/10/07 15:01:12;;;;;;;0.40;0.40;;;20.00;94.70;;;;;;5090021;28;20211;-68
2022/10/07 15:04:00;;;;;;;0.40;0.40;;;19.20;82.90;;;;;;5089707;28;20201;-69
2022/10/07 15:06:48;;;;;;;0.40;0.40;;;19.20;86.10;;;;;;5091471;28;20208;-69
2022/10/07 15:09:38;;;;;;;0.40;0.40;;;18.60;89.10;;;;;;5086034;28;20193;-69
2022/10/07 15:12:26;;;;;;;0.40;0.40;;;18.00;89.90;;;;;;5076146;28;20216;-69
2022/10/07 15:15:16;;;;;;;0.45;0.45;;;17.80;90.30;;;;;;5063341;28;20729;-69
2022/10/07 15:18:05;;;;;;;0.40;0.40;;;17.60;90.90;;;;;;5056704;28;20276;-69
2022/10/07 15:20:57;;;;;;;0.40;0.40;;;17.40;91.20;;;;;;5073812;28;20228;-69
2022/10/07 15:23:49;;;;;;;0.40;0.40;;;17.20;91.10;;;;;;5074383;28;20203;-69
2022/10/07 15:26:37;;;;;;;0.40;0.40;;;16.90;91.40;;;;;;5073656;28;20205;-69